createdAt,value
2023-06-07T00:00:19.107Z,44.0876
2023-06-07T00:01:20.943Z,44.0964
2023-06-07T00:02:36.869Z,44.1103
2023-06-07T00:03:25.670Z,44.1396
2023-06-07T00:04:26.464Z,44.1565
2023-06-07T00:05:28.321Z,44.1249
2023-06-07T00:06:30.136Z,44.1312
2023-06-07T00:07:31.976Z,44.1680
2023-06-07T00:08:33.840Z,44.1387
2023-06-07T00:09:35.654Z,44.1265
2023-06-07T00:10:37.492Z,44.1330
2023-06-07T00:11:39.316Z,44.1425
2023-06-07T00:12:41.150Z,44.1288
2023-06-07T00:13:43.020Z,44.1289
2023-06-07T00:14:44.849Z,44.1437
2023-06-07T00:15:46.718Z,44.1578
2023-06-07T00:16:48.616Z,44.1851
2023-06-07T00:17:50.487Z,44.1905
2023-06-07T00:18:52.209Z,44.2076
2023-06-07T00:19:54.055Z,44.2192
2023-06-07T00:20:55.933Z,44.2367
2023-06-07T00:21:57.726Z,44.2543
2023-06-07T00:22:59.566Z,44.2725
2023-06-07T00:24:01.412Z,44.2921
2023-06-07T00:25:03.278Z,44.3188
2023-06-07T00:26:05.091Z,44.3440
2023-06-07T00:27:06.939Z,44.3441
2023-06-07T00:28:08.779Z,44.3608
2023-06-07T00:29:10.608Z,44.3893
2023-06-07T00:30:12.458Z,44.4371
2023-06-07T00:31:14.330Z,44.4791
2023-06-07T00:32:16.152Z,44.5343
2023-06-07T00:33:17.970Z,44.5628
2023-06-07T00:34:19.801Z,44.5553
2023-06-07T00:35:21.654Z,44.5522
2023-06-07T00:36:23.545Z,44.5536
2023-06-07T00:37:25.371Z,44.5539
2023-06-07T00:38:27.163Z,44.5562
2023-06-07T00:39:29.002Z,44.5526
2023-06-07T00:40:30.855Z,44.5567
2023-06-07T00:41:32.704Z,44.5496
2023-06-07T00:42:34.535Z,44.5553
2023-06-07T00:43:36.358Z,44.5664
2023-06-07T00:44:38.225Z,44.5608
2023-06-07T00:45:40.031Z,44.5629
2023-06-07T00:46:41.929Z,44.5768
2023-06-07T00:47:43.804Z,44.5876
2023-06-07T00:48:45.671Z,44.6009
2023-06-07T00:49:47.407Z,44.6162
2023-06-07T00:50:49.254Z,44.6226
2023-06-07T00:51:51.174Z,44.6253
2023-06-07T00:52:52.904Z,44.6220
2023-06-07T00:53:54.735Z,44.6158
2023-06-07T00:54:56.600Z,44.6101
2023-06-07T00:55:58.432Z,44.6189
2023-06-07T00:57:00.290Z,44.6310
2023-06-07T00:58:02.097Z,44.6334
2023-06-07T00:59:03.935Z,44.6349
2023-06-07T01:00:06.033Z,44.6390
2023-06-07T01:01:07.639Z,44.6588
2023-06-07T01:02:09.555Z,44.6858
2023-06-07T01:03:11.378Z,44.7182
2023-06-07T01:04:13.135Z,44.7153
2023-06-07T01:05:14.979Z,44.6962
2023-06-07T01:06:16.806Z,44.7133
2023-06-07T01:07:18.711Z,44.6988
2023-06-07T01:08:20.476Z,44.6918
2023-06-07T01:09:22.383Z,44.6996
2023-06-07T01:10:24.173Z,44.6693
2023-06-07T01:11:26.017Z,44.6486
2023-06-07T01:12:27.848Z,44.6654
2023-06-07T01:13:29.682Z,44.6452
2023-06-07T01:14:31.532Z,44.6664
2023-06-07T01:15:33.372Z,44.6480
2023-06-07T01:16:35.252Z,44.6261
2023-06-07T01:17:37.060Z,44.6287
2023-06-07T01:18:38.871Z,44.6643
2023-06-07T01:19:40.722Z,44.7214
2023-06-07T01:20:42.570Z,44.7115
2023-06-07T01:21:44.411Z,44.6875
2023-06-07T01:22:46.271Z,44.6734
2023-06-07T01:23:48.098Z,44.6743
2023-06-07T01:24:49.910Z,44.6764
2023-06-07T01:25:51.748Z,44.6826
2023-06-07T01:26:53.613Z,44.6857
2023-06-07T01:27:55.414Z,44.6877
2023-06-07T01:28:57.242Z,44.6914
2023-06-07T01:29:59.074Z,44.6958
2023-06-07T01:31:00.925Z,44.6911
2023-06-07T01:32:02.779Z,44.6826
2023-06-07T01:33:04.752Z,44.6697
2023-06-07T01:34:06.419Z,44.6535
2023-06-07T01:35:08.256Z,44.6441
2023-06-07T01:36:10.118Z,44.6652
2023-06-07T01:37:11.951Z,44.6789
2023-06-07T01:38:13.855Z,44.6956
2023-06-07T01:39:15.649Z,44.7125
2023-06-07T01:40:17.473Z,44.7102
2023-06-07T01:41:19.300Z,44.7066
2023-06-07T01:42:21.135Z,44.7061
2023-06-07T01:43:22.981Z,44.6931
2023-06-07T01:44:24.820Z,44.6685
2023-06-07T01:45:26.644Z,44.6500
2023-06-07T01:46:28.550Z,44.6537
2023-06-07T01:47:30.302Z,44.6775
2023-06-07T01:48:32.170Z,44.6729
2023-06-07T01:49:33.990Z,44.6649
2023-06-07T01:50:35.826Z,44.6714
2023-06-07T01:51:37.681Z,44.7197
2023-06-07T01:52:39.498Z,44.7133
2023-06-07T01:53:41.364Z,44.6840
2023-06-07T01:54:43.161Z,44.6504
2023-06-07T01:55:45.019Z,44.6078
2023-06-07T01:56:46.875Z,44.5642
2023-06-07T01:57:48.694Z,44.5392
2023-06-07T01:58:50.530Z,44.5195
2023-06-07T01:59:52.357Z,44.5258
2023-06-07T02:00:54.190Z,44.5305
2023-06-07T02:01:56.124Z,44.5143
2023-06-07T02:02:57.900Z,44.4886
2023-06-07T02:03:59.762Z,44.4996
2023-06-07T02:05:01.534Z,44.4716
2023-06-07T02:06:10.956Z,44.4994
2023-06-07T02:07:05.206Z,44.4984
2023-06-07T02:08:07.060Z,44.5147
2023-06-07T02:09:08.961Z,44.5879
2023-06-07T02:10:11.109Z,44.5713
2023-06-07T02:11:12.580Z,44.5440
2023-06-07T02:12:14.405Z,44.5705
2023-06-07T02:13:16.249Z,44.5512
2023-06-07T02:14:18.144Z,44.5100
2023-06-07T02:15:19.940Z,44.5064
2023-06-07T02:16:21.777Z,44.4923
2023-06-07T02:17:23.655Z,44.4823
2023-06-07T02:18:25.494Z,44.4697
2023-06-07T02:19:27.304Z,44.4759
2023-06-07T02:20:29.119Z,44.4987
2023-06-07T02:21:30.982Z,44.4797
2023-06-07T02:22:32.803Z,44.4533
2023-06-07T02:23:34.661Z,44.4434
2023-06-07T02:24:36.562Z,44.4189
2023-06-07T02:25:38.330Z,44.4213
2023-06-07T02:26:40.148Z,44.4151
2023-06-07T02:27:41.978Z,44.4141
2023-06-07T02:28:43.819Z,44.4077
2023-06-07T02:29:45.710Z,44.4070
2023-06-07T02:30:47.512Z,44.4034
2023-06-07T02:31:49.438Z,44.3882
2023-06-07T02:32:51.340Z,44.3683
2023-06-07T02:33:53.013Z,44.3765
2023-06-07T02:34:54.908Z,44.3749
2023-06-07T02:35:56.704Z,44.3458
2023-06-07T02:36:58.544Z,44.3396
2023-06-07T02:38:00.366Z,44.3492
2023-06-07T02:39:02.240Z,44.3585
2023-06-07T02:40:04.286Z,44.3489
2023-06-07T02:41:05.883Z,44.3436
2023-06-07T02:42:07.724Z,44.3509
2023-06-07T02:43:09.577Z,44.3502
2023-06-07T02:44:11.497Z,44.3568
2023-06-07T02:45:13.272Z,44.3504
2023-06-07T02:46:15.097Z,44.3449
2023-06-07T02:47:16.925Z,44.3568
2023-06-07T02:48:18.753Z,44.3459
2023-06-07T02:49:20.606Z,44.3574
2023-06-07T02:50:22.461Z,44.3766
2023-06-07T02:51:24.288Z,44.3747
2023-06-07T02:52:26.110Z,44.3666
2023-06-07T02:53:27.941Z,44.3600
2023-06-07T02:54:29.825Z,44.3384
2023-06-07T02:55:31.642Z,44.2978
2023-06-07T02:56:33.520Z,44.2949
2023-06-07T02:57:35.302Z,44.3020
2023-06-07T02:58:37.132Z,44.3136
2023-06-07T02:59:38.973Z,44.3769
2023-06-07T03:00:40.861Z,44.4174
2023-06-07T03:01:42.662Z,44.4463
2023-06-07T03:02:44.524Z,44.4966
2023-06-07T03:03:46.387Z,44.5058
2023-06-07T03:04:48.155Z,44.5003
2023-06-07T03:05:50.042Z,44.4731
2023-06-07T03:06:51.845Z,44.4371
2023-06-07T03:07:53.705Z,44.4265
2023-06-07T03:08:55.542Z,44.4360
2023-06-07T03:09:57.383Z,44.4334
2023-06-07T03:10:59.209Z,44.4434
2023-06-07T03:12:01.106Z,44.4320
2023-06-07T03:13:02.967Z,44.4283
2023-06-07T03:14:04.782Z,44.4182
2023-06-07T03:15:06.643Z,44.4112
2023-06-07T03:16:08.489Z,44.4112
2023-06-07T03:17:10.573Z,44.4311
2023-06-07T03:18:12.191Z,44.4517
2023-06-07T03:19:13.981Z,44.4806
2023-06-07T03:20:15.811Z,44.4718
2023-06-07T03:21:17.705Z,44.4541
2023-06-07T03:22:19.495Z,44.4536
2023-06-07T03:23:21.314Z,44.4473
2023-06-07T03:24:23.172Z,44.4492
2023-06-07T03:25:25.065Z,44.4501
2023-06-07T03:26:26.919Z,44.4532
2023-06-07T03:27:28.696Z,44.4755
2023-06-07T03:28:30.514Z,44.4889
2023-06-07T03:29:32.366Z,44.5109
2023-06-07T03:30:34.247Z,44.5045
2023-06-07T03:31:36.080Z,44.4996
2023-06-07T03:32:37.907Z,44.4722
2023-06-07T03:33:39.727Z,44.4710
2023-06-07T03:34:41.564Z,44.4398
2023-06-07T03:35:43.391Z,44.4102
2023-06-07T03:36:45.268Z,44.4069
2023-06-07T03:37:47.066Z,44.4131
2023-06-07T03:38:48.902Z,44.4253
2023-06-07T03:39:50.757Z,44.4155
2023-06-07T03:40:52.600Z,44.4095
2023-06-07T03:41:54.596Z,44.4058
2023-06-07T03:42:56.279Z,44.4116
2023-06-07T03:43:58.116Z,44.4487
2023-06-07T03:44:59.938Z,44.4480
2023-06-07T03:46:01.815Z,44.4288
2023-06-07T03:47:03.636Z,44.4184
2023-06-07T03:48:05.513Z,44.4277
2023-06-07T03:49:07.334Z,44.4088
2023-06-07T03:50:09.180Z,44.4022
2023-06-07T03:51:10.986Z,44.3999
2023-06-07T03:52:12.847Z,44.4117
2023-06-07T03:53:14.650Z,44.4396
2023-06-07T03:54:16.485Z,44.4500
2023-06-07T03:55:18.339Z,44.4665
2023-06-07T03:56:20.188Z,44.4514
2023-06-07T03:57:22.050Z,44.4446
2023-06-07T03:58:23.846Z,44.4375
2023-06-07T03:59:25.703Z,44.4372
2023-06-07T04:00:27.558Z,44.4499
2023-06-07T04:01:29.379Z,44.5056
2023-06-07T04:02:31.328Z,44.4751
2023-06-07T04:03:33.123Z,44.4774
2023-06-07T04:04:35.015Z,44.4821
2023-06-07T04:05:36.732Z,44.4677
2023-06-07T04:06:38.584Z,44.4682
2023-06-07T04:07:40.429Z,44.4859
2023-06-07T04:08:42.242Z,44.5117
2023-06-07T04:09:44.085Z,44.5321
2023-06-07T04:10:45.935Z,44.5174
2023-06-07T04:11:47.780Z,44.5178
2023-06-07T04:12:49.773Z,44.5346
2023-06-07T04:13:51.461Z,44.5546
2023-06-07T04:14:53.280Z,44.5594
2023-06-07T04:15:55.129Z,44.5564
2023-06-07T04:16:57.123Z,44.5615
2023-06-07T04:17:58.920Z,44.5782
2023-06-07T04:19:02.270Z,44.6054
2023-06-07T04:20:02.472Z,44.6739
2023-06-07T04:21:04.354Z,44.7381
2023-06-07T04:22:06.176Z,44.6851
2023-06-07T04:23:08.021Z,44.6797
2023-06-07T04:24:09.936Z,44.6977
2023-06-07T04:25:11.699Z,44.7435
2023-06-07T04:26:13.534Z,44.7710
2023-06-07T04:27:15.377Z,44.7874
2023-06-07T04:28:17.262Z,44.8210
2023-06-07T04:29:19.053Z,44.7908
2023-06-07T04:30:20.882Z,44.7797
2023-06-07T04:31:22.736Z,44.8030
2023-06-07T04:32:24.624Z,44.8136
2023-06-07T04:33:26.400Z,44.8261
2023-06-07T04:34:28.233Z,44.8337
2023-06-07T04:35:30.072Z,44.8368
2023-06-07T04:36:31.928Z,44.8367
2023-06-07T04:37:33.757Z,44.8112
2023-06-07T04:38:46.300Z,44.8122
2023-06-07T04:39:39.182Z,44.8370
2023-06-07T04:40:39.741Z,44.8274
2023-06-07T04:41:41.323Z,44.8274
2023-06-07T04:42:42.951Z,44.8398
2023-06-07T04:43:44.837Z,44.8602
2023-06-07T04:44:46.614Z,44.8910
2023-06-07T04:45:48.452Z,44.9133
2023-06-07T04:46:50.290Z,44.9403
2023-06-07T04:47:52.188Z,44.9510
2023-06-07T04:48:54.002Z,44.9829
2023-06-07T04:49:55.800Z,44.9952
2023-06-07T04:50:57.635Z,45.0234
2023-06-07T04:51:59.472Z,45.0547
2023-06-07T04:53:01.320Z,45.0786
2023-06-07T04:54:03.220Z,45.1015
2023-06-07T04:55:04.975Z,45.1137
2023-06-07T04:56:06.827Z,45.1235
2023-06-07T04:57:08.663Z,45.1475
2023-06-07T04:58:10.514Z,45.1588
2023-06-07T04:59:12.348Z,45.1849
2023-06-07T05:00:14.189Z,45.2255
2023-06-07T05:01:16.008Z,45.2620
2023-06-07T05:02:17.835Z,45.2805
2023-06-07T05:03:19.683Z,45.2966
2023-06-07T05:04:21.625Z,45.3232
2023-06-07T05:05:23.440Z,45.3692
2023-06-07T05:06:25.253Z,45.3852
2023-06-07T05:07:27.023Z,45.4101
2023-06-07T05:08:28.863Z,45.4346
2023-06-07T05:09:31.064Z,45.4400
2023-06-07T05:10:32.555Z,45.4273
2023-06-07T05:11:34.405Z,45.4553
2023-06-07T05:12:36.224Z,45.4808
2023-06-07T05:13:38.058Z,45.5318
2023-06-07T05:14:39.905Z,45.5141
2023-06-07T05:15:41.765Z,45.5162
2023-06-07T05:16:44.630Z,45.5427
2023-06-07T05:17:45.447Z,45.5761
2023-06-07T05:18:47.260Z,45.6029
2023-06-07T05:19:49.093Z,45.6210
2023-06-07T05:20:50.922Z,45.6269
2023-06-07T05:21:52.763Z,45.6526
2023-06-07T05:22:54.628Z,45.6703
2023-06-07T05:23:56.451Z,45.6682
2023-06-07T05:24:58.275Z,45.6858
2023-06-07T05:26:00.093Z,45.6897
2023-06-07T05:27:01.944Z,45.7096
2023-06-07T05:28:13.187Z,45.7293
2023-06-07T05:29:08.304Z,45.7599
2023-06-07T05:30:08.896Z,45.7808
2023-06-07T05:31:12.048Z,45.8147
2023-06-07T05:32:11.964Z,45.8509
2023-06-07T05:33:13.539Z,45.8844
2023-06-07T05:34:15.110Z,45.9114
2023-06-07T05:35:16.690Z,45.9449
2023-06-07T05:36:18.451Z,46.0000
2023-06-07T05:37:20.287Z,46.0406
2023-06-07T05:38:22.115Z,46.0658
2023-06-07T05:39:23.946Z,46.0865
2023-06-07T05:40:25.813Z,46.1056
2023-06-07T05:41:27.628Z,46.1301
2023-06-07T05:42:29.453Z,46.1537
2023-06-07T05:43:31.295Z,46.1635
2023-06-07T05:44:33.132Z,46.1903
2023-06-07T05:45:35.013Z,46.2341
2023-06-07T05:46:36.830Z,46.2611
2023-06-07T05:47:38.702Z,46.2847
2023-06-07T05:48:40.476Z,46.3127
2023-06-07T05:49:42.334Z,46.3518
2023-06-07T05:50:44.158Z,46.3938
2023-06-07T05:51:45.991Z,46.4210
2023-06-07T05:52:47.832Z,46.4534
2023-06-07T05:53:49.664Z,46.5121
2023-06-07T05:54:51.494Z,46.5351
2023-06-07T05:55:53.349Z,46.5433
2023-06-07T05:56:55.161Z,46.5653
2023-06-07T05:57:57.040Z,46.5763
2023-06-07T05:58:58.857Z,46.5960
2023-06-07T06:00:00.677Z,46.6353
2023-06-07T06:01:02.556Z,46.6676
2023-06-07T06:02:04.380Z,46.7189
2023-06-07T06:03:06.226Z,46.7423
2023-06-07T06:04:08.048Z,46.7647
2023-06-07T06:05:10.048Z,46.7886
2023-06-07T06:06:11.720Z,46.8332
2023-06-07T06:07:13.552Z,46.8888
2023-06-07T06:08:15.407Z,46.9223
2023-06-07T06:09:17.274Z,46.9681
2023-06-07T06:10:19.080Z,46.9989
2023-06-07T06:11:20.935Z,47.0194
2023-06-07T06:12:22.767Z,47.0252
2023-06-07T06:13:24.607Z,47.0559
2023-06-07T06:14:26.510Z,47.0926
2023-06-07T06:15:28.273Z,47.1373
2023-06-07T06:16:30.180Z,47.2148
2023-06-07T06:17:31.993Z,47.2767
2023-06-07T06:18:33.842Z,47.3276
2023-06-07T06:19:35.640Z,47.3389
2023-06-07T06:20:37.477Z,47.3229
2023-06-07T06:21:39.315Z,47.3282
2023-06-07T06:22:41.159Z,47.3597
2023-06-07T06:23:43.025Z,47.3938
2023-06-07T06:24:44.826Z,47.3915
2023-06-07T06:25:46.652Z,47.4193
2023-06-07T06:26:48.499Z,47.4651
2023-06-07T06:27:50.399Z,47.4922
2023-06-07T06:28:52.182Z,47.5134
2023-06-07T06:29:54.009Z,47.5365
2023-06-07T06:30:55.861Z,47.5594
2023-06-07T06:31:57.685Z,47.5922
2023-06-07T06:32:59.561Z,47.6414
2023-06-07T06:34:01.343Z,47.6876
2023-06-07T06:35:03.174Z,47.7362
2023-06-07T06:36:05.004Z,47.7719
2023-06-07T06:37:06.928Z,47.8032
2023-06-07T06:38:08.840Z,47.8416
2023-06-07T06:39:10.504Z,47.8592
2023-06-07T06:40:12.341Z,47.9060
2023-06-07T06:41:14.190Z,47.9465
2023-06-07T06:42:16.035Z,47.9833
2023-06-07T06:43:17.868Z,48.0318
2023-06-07T06:44:19.687Z,48.0635
2023-06-07T06:45:21.528Z,48.0984
2023-06-07T06:46:23.459Z,48.1334
2023-06-07T06:47:25.266Z,48.1752
2023-06-07T06:48:27.019Z,48.2007
2023-06-07T06:49:28.866Z,48.2261
2023-06-07T06:50:33.347Z,48.2623
2023-06-07T06:51:32.541Z,48.2985
2023-06-07T06:52:34.386Z,48.3182
2023-06-07T06:53:36.233Z,48.3635
2023-06-07T06:54:38.065Z,48.4009
2023-06-07T06:55:39.878Z,48.4633
2023-06-07T06:56:41.734Z,48.5144
2023-06-07T06:57:43.562Z,48.5209
2023-06-07T06:58:45.404Z,48.5404
2023-06-07T06:59:50.067Z,48.5524
2023-06-07T07:00:49.215Z,48.5657
2023-06-07T07:01:50.932Z,48.5650
2023-06-07T07:02:52.976Z,48.5667
2023-06-07T07:03:54.612Z,48.5663
2023-06-07T07:04:56.402Z,48.5570
2023-06-07T07:05:58.253Z,48.5536
2023-06-07T07:07:00.080Z,48.5647
2023-06-07T07:08:01.931Z,48.5894
2023-06-07T07:09:03.743Z,48.6131
2023-06-07T07:10:05.741Z,48.6377
2023-06-07T07:11:07.418Z,48.6250
2023-06-07T07:12:09.259Z,48.6142
2023-06-07T07:13:11.118Z,48.6362
2023-06-07T07:14:12.913Z,48.6568
2023-06-07T07:15:14.786Z,48.6713
2023-06-07T07:16:16.762Z,48.6841
2023-06-07T07:17:18.500Z,48.7175
2023-06-07T07:18:20.346Z,48.7502
2023-06-07T07:19:22.174Z,48.7722
2023-06-07T07:20:24.008Z,48.7758
2023-06-07T07:21:25.863Z,48.7510
2023-06-07T07:22:29.109Z,48.7274
2023-06-07T07:23:29.568Z,48.7241
2023-06-07T07:24:31.361Z,48.7214
2023-06-07T07:25:33.202Z,48.7030
2023-06-07T07:26:35.051Z,48.7345
2023-06-07T07:27:36.907Z,48.7502
2023-06-07T07:28:38.760Z,48.7373
2023-06-07T07:29:40.553Z,48.7384
2023-06-07T07:30:42.393Z,48.7243
2023-06-07T07:31:44.225Z,48.7201
2023-06-07T07:32:46.145Z,48.7163
2023-06-07T07:33:48.182Z,48.7514
2023-06-07T07:34:49.810Z,48.7622
2023-06-07T07:35:51.584Z,48.7505
2023-06-07T07:36:53.409Z,48.7393
2023-06-07T07:37:55.258Z,48.7626
2023-06-07T07:38:57.118Z,48.7774
2023-06-07T07:39:58.941Z,48.7972
2023-06-07T07:41:00.772Z,48.8371
2023-06-07T07:42:03.579Z,48.8398
2023-06-07T07:43:04.474Z,48.8488
2023-06-07T07:44:06.320Z,48.8517
2023-06-07T07:45:08.140Z,48.8454
2023-06-07T07:46:10.014Z,48.8419
2023-06-07T07:47:11.812Z,48.8538
2023-06-07T07:48:13.696Z,48.8427
2023-06-07T07:49:15.567Z,48.8342
2023-06-07T07:50:17.331Z,48.8364
2023-06-07T07:51:19.149Z,48.8472
2023-06-07T07:52:22.649Z,48.8599
2023-06-07T07:53:22.842Z,48.8605
2023-06-07T07:54:24.697Z,48.8372
2023-06-07T07:55:26.518Z,48.7791
2023-06-07T07:56:28.357Z,48.7357
2023-06-07T07:57:30.181Z,48.7287
2023-06-07T07:58:32.040Z,48.7295
2023-06-07T07:59:34.112Z,48.7039
2023-06-07T08:00:35.715Z,48.6984
2023-06-07T08:01:37.572Z,48.7138
2023-06-07T08:02:39.506Z,48.6857
2023-06-07T08:03:41.347Z,48.6553
2023-06-07T08:04:43.227Z,48.6179
2023-06-07T08:05:44.915Z,48.5821
2023-06-07T08:06:46.751Z,48.5096
2023-06-07T08:07:48.585Z,48.4576
2023-06-07T08:08:50.407Z,48.4196
2023-06-07T08:09:52.266Z,48.3944
2023-06-07T08:10:54.105Z,48.3671
2023-06-07T08:11:55.929Z,48.3582
2023-06-07T08:12:57.763Z,48.3386
2023-06-07T08:13:59.604Z,48.3290
2023-06-07T08:15:01.459Z,48.3344
2023-06-07T08:16:03.320Z,48.3450
2023-06-07T08:17:05.119Z,48.3291
2023-06-07T08:18:06.956Z,48.3124
2023-06-07T08:19:08.827Z,48.2573
2023-06-07T08:20:10.647Z,48.1510
2023-06-07T08:21:12.453Z,48.0453
2023-06-07T08:22:14.302Z,47.9510
2023-06-07T08:23:16.142Z,47.8893
2023-06-07T08:24:17.963Z,47.8698
2023-06-07T08:25:19.835Z,47.9137
2023-06-07T08:26:21.635Z,47.9705
2023-06-07T08:27:23.467Z,48.0030
2023-06-07T08:28:25.290Z,48.0210
2023-06-07T08:29:27.125Z,47.9912
2023-06-07T08:30:29.002Z,47.9413
2023-06-07T08:31:30.841Z,47.9294
2023-06-07T08:32:32.749Z,47.9219
2023-06-07T08:33:34.478Z,47.8721
2023-06-07T08:34:36.318Z,47.8453
2023-06-07T08:35:38.153Z,47.8221
2023-06-07T08:36:39.990Z,47.8086
2023-06-07T08:37:41.809Z,47.7981
2023-06-07T08:38:43.661Z,47.7779
2023-06-07T08:39:45.485Z,47.7380
2023-06-07T08:40:47.339Z,47.6767
2023-06-07T08:41:49.157Z,47.6303
2023-06-07T08:42:51.009Z,47.5957
2023-06-07T08:43:52.807Z,47.5532
2023-06-07T08:44:54.653Z,47.5236
2023-06-07T08:45:56.618Z,47.5046
2023-06-07T08:46:58.307Z,47.4383
2023-06-07T08:48:00.240Z,47.3715
2023-06-07T08:49:01.984Z,47.3001
2023-06-07T08:50:04.259Z,47.2061
2023-06-07T08:51:05.671Z,47.1340
2023-06-07T08:53:10.309Z,47.0544
2023-06-07T08:54:11.158Z,47.0245
2023-06-07T08:55:13.197Z,46.9826
2023-06-07T08:56:17.889Z,46.9369
2023-06-07T08:57:16.677Z,46.9208
2023-06-07T08:58:18.492Z,46.9022
2023-06-07T08:59:20.316Z,46.9011
2023-06-07T09:00:22.152Z,46.8674
2023-06-07T09:01:24.100Z,46.8304
2023-06-07T09:02:25.978Z,46.7918
2023-06-07T09:03:27.762Z,46.7210
2023-06-07T09:04:29.541Z,46.6661
2023-06-07T09:05:31.644Z,46.6437
2023-06-07T09:06:33.262Z,46.6223
2023-06-07T09:07:35.040Z,46.5881
2023-06-07T09:08:36.870Z,46.5518
2023-06-07T09:09:38.697Z,46.5369
2023-06-07T09:10:40.541Z,46.5199
2023-06-07T09:11:42.404Z,46.4838
2023-06-07T09:12:44.243Z,46.4583
2023-06-07T09:13:46.077Z,46.4713
2023-06-07T09:14:47.893Z,46.5003
2023-06-07T09:15:49.724Z,46.5378
2023-06-07T09:16:51.772Z,46.5549
2023-06-07T09:17:53.688Z,46.5798
2023-06-07T09:18:55.359Z,46.5829
2023-06-07T09:19:57.088Z,46.5568
2023-06-07T09:20:58.937Z,46.5505
2023-06-07T09:22:00.949Z,46.5306
2023-06-07T09:23:02.612Z,46.4928
2023-06-07T09:24:04.461Z,46.4780
2023-06-07T09:25:06.608Z,46.4993
2023-06-07T09:26:08.120Z,46.5171
2023-06-07T09:27:09.977Z,46.5643
2023-06-07T09:28:11.789Z,46.5747
2023-06-07T09:29:13.623Z,46.5874
2023-06-07T09:30:15.470Z,46.6113
2023-06-07T09:31:17.337Z,46.6259
2023-06-07T09:32:19.187Z,46.6061
2023-06-07T09:33:21.041Z,46.5647
2023-06-07T09:34:22.799Z,46.5742
2023-06-07T09:35:24.649Z,46.6047
2023-06-07T09:36:26.522Z,46.6362
2023-06-07T09:37:28.462Z,46.6483
2023-06-07T09:38:30.155Z,46.6502
2023-06-07T09:39:32.006Z,46.6612
2023-06-07T09:40:33.829Z,46.6547
2023-06-07T09:41:35.654Z,46.6486
2023-06-07T09:42:37.508Z,46.6610
2023-06-07T09:43:39.348Z,46.6766
2023-06-07T09:44:41.173Z,46.6973
2023-06-07T09:45:43.039Z,46.7139
2023-06-07T09:46:44.860Z,46.7386
2023-06-07T09:47:46.694Z,46.7469
2023-06-07T09:48:48.777Z,46.7591
2023-06-07T09:49:50.389Z,46.7400
2023-06-07T09:50:52.203Z,46.7098
2023-06-07T09:51:54.102Z,46.7109
2023-06-07T09:52:55.920Z,46.6921
2023-06-07T09:53:57.752Z,46.6830
2023-06-07T09:54:59.545Z,46.6949
2023-06-07T09:56:01.466Z,46.7253
2023-06-07T09:57:03.221Z,46.7420
2023-06-07T09:58:05.048Z,46.7563
2023-06-07T09:59:06.902Z,46.7639
2023-06-07T10:00:09.128Z,46.7884
2023-06-07T10:01:10.581Z,46.8119
2023-06-07T10:02:12.395Z,46.8263
2023-06-07T10:03:14.368Z,46.8075
2023-06-07T10:04:16.115Z,46.8088
2023-06-07T10:05:17.897Z,46.7893
2023-06-07T10:06:19.733Z,46.7567
2023-06-07T10:07:21.572Z,46.7406
2023-06-07T10:08:23.455Z,46.7451
2023-06-07T10:09:25.268Z,46.7848
2023-06-07T10:10:27.104Z,46.7957
2023-06-07T10:11:28.896Z,46.8148
2023-06-07T10:12:30.758Z,46.7927
2023-06-07T10:13:32.644Z,46.7406
2023-06-07T10:14:34.563Z,46.7082
2023-06-07T10:15:36.254Z,46.6616
2023-06-07T10:16:38.139Z,46.6180
2023-06-07T10:17:39.949Z,46.5788
2023-06-07T10:18:41.783Z,46.5118
2023-06-07T10:19:43.612Z,46.4414
2023-06-07T10:20:45.510Z,46.4069
2023-06-07T10:21:47.330Z,46.3765
2023-06-07T10:22:49.143Z,46.2780
2023-06-07T10:23:51.096Z,46.2504
2023-06-07T10:24:52.867Z,46.1951
2023-06-07T10:25:54.623Z,46.0973
2023-06-07T10:26:56.477Z,46.0264
2023-06-07T10:27:58.302Z,46.0021
2023-06-07T10:29:00.159Z,45.9895
2023-06-07T10:30:02.012Z,45.8963
2023-06-07T10:31:03.816Z,45.8065
2023-06-07T10:32:05.703Z,45.6924
2023-06-07T10:33:07.540Z,45.5553
2023-06-07T10:34:09.390Z,45.4654
2023-06-07T10:35:13.614Z,45.4178
2023-06-07T10:36:13.061Z,45.3691
2023-06-07T10:37:14.908Z,45.1880
2023-06-07T10:38:16.698Z,45.0582
2023-06-07T10:39:18.566Z,45.0096
2023-06-07T10:40:20.406Z,44.9719
2023-06-07T10:41:22.223Z,44.9532
2023-06-07T10:42:24.047Z,44.8652
2023-06-07T10:43:25.879Z,44.7175
2023-06-07T10:44:27.798Z,44.7251
2023-06-07T10:45:29.570Z,44.7381
2023-06-07T10:46:31.425Z,44.7376
2023-06-07T10:47:33.287Z,44.6988
2023-06-07T10:48:35.134Z,44.6116
2023-06-07T10:49:36.973Z,44.5235
2023-06-07T10:50:38.801Z,44.4460
2023-06-07T10:51:40.666Z,44.4021
2023-06-07T10:52:42.461Z,44.3188
2023-06-07T10:53:44.347Z,44.2405
2023-06-07T10:54:46.143Z,44.1752
2023-06-07T10:55:47.986Z,44.1255
2023-06-07T10:56:49.819Z,44.0275
2023-06-07T10:57:51.664Z,43.9290
2023-06-07T10:58:53.488Z,43.7762
2023-06-07T10:59:55.334Z,43.7191
2023-06-07T11:00:57.226Z,43.6223
2023-06-07T11:01:59.076Z,43.5936
2023-06-07T11:03:00.949Z,43.4750
2023-06-07T11:04:02.960Z,43.3172
2023-06-07T11:05:04.893Z,43.2137
2023-06-07T11:06:06.796Z,43.1504
2023-06-07T11:07:08.195Z,43.1249
2023-06-07T11:08:10.039Z,43.1478
2023-06-07T11:09:11.870Z,43.1526
2023-06-07T11:10:13.844Z,42.8456
2023-06-07T11:11:15.575Z,42.6799
2023-06-07T11:12:17.419Z,42.6375
2023-06-07T11:13:19.253Z,42.6770
2023-06-07T11:14:21.087Z,42.6131
2023-06-07T11:15:23.091Z,42.5177
2023-06-07T11:16:24.823Z,42.4357
2023-06-07T11:17:26.660Z,42.2826
2023-06-07T11:18:28.579Z,42.2079
2023-06-07T11:19:30.424Z,42.2561
2023-06-07T11:20:32.205Z,42.1850
2023-06-07T11:21:34.031Z,42.0926
2023-06-07T11:22:35.900Z,41.9665
2023-06-07T11:23:37.771Z,41.9415
2023-06-07T11:24:39.631Z,41.8974
2023-06-07T11:25:41.548Z,41.7043
2023-06-07T11:26:43.238Z,41.4364
2023-06-07T11:27:45.083Z,41.2917
2023-06-07T11:28:46.991Z,41.2686
2023-06-07T11:29:48.741Z,41.1759
2023-06-07T11:30:50.597Z,41.0970
2023-06-07T11:31:52.465Z,41.0163
2023-06-07T11:32:54.301Z,40.8638
2023-06-07T11:33:56.123Z,40.7588
2023-06-07T11:34:58.013Z,40.6992
2023-06-07T11:35:59.786Z,40.6031
2023-06-07T11:37:01.625Z,40.5238
2023-06-07T11:38:03.469Z,40.4949
2023-06-07T11:39:05.311Z,40.4593
2023-06-07T11:40:07.410Z,40.4150
2023-06-07T11:41:08.996Z,40.3541
2023-06-07T11:42:10.849Z,40.3048
2023-06-07T11:43:12.671Z,40.2658
2023-06-07T11:44:14.504Z,40.2312
2023-06-07T11:45:16.350Z,40.2302
2023-06-07T11:46:18.180Z,40.2190
2023-06-07T11:47:20.062Z,40.1898
2023-06-07T11:48:21.945Z,40.1442
2023-06-07T11:49:23.701Z,40.1854
2023-06-07T11:50:25.521Z,40.2652
2023-06-07T11:51:27.590Z,40.1381
2023-06-07T11:52:29.196Z,40.0615
2023-06-07T11:53:31.041Z,39.9243
2023-06-07T11:54:32.889Z,39.7321
2023-06-07T11:55:34.720Z,39.6113
2023-06-07T11:56:36.592Z,39.5058
2023-06-07T11:57:38.427Z,39.5680
2023-06-07T11:58:40.248Z,39.6697
2023-06-07T11:59:42.204Z,39.4609
2023-06-07T12:00:43.949Z,39.1430
2023-06-07T12:01:45.777Z,39.0124
2023-06-07T12:02:47.628Z,38.7734
2023-06-07T12:03:49.534Z,38.6901
2023-06-07T12:04:51.318Z,38.6348
2023-06-07T12:05:53.093Z,38.5752
2023-06-07T12:06:54.946Z,38.5223
2023-06-07T12:07:57.686Z,38.4806
2023-06-07T12:08:58.624Z,38.4000
2023-06-07T12:10:00.453Z,38.2790
2023-06-07T12:11:02.307Z,38.1628
2023-06-07T12:12:04.235Z,38.0698
2023-06-07T12:13:05.975Z,37.9396
2023-06-07T12:14:07.803Z,37.8057
2023-06-07T12:15:09.637Z,37.6192
2023-06-07T12:16:11.515Z,37.5033
2023-06-07T12:17:13.358Z,37.4335
2023-06-07T12:18:15.169Z,37.4095
2023-06-07T12:19:16.994Z,37.2881
2023-06-07T12:20:18.830Z,37.2534
2023-06-07T12:21:20.691Z,37.2669
2023-06-07T12:22:22.594Z,37.2060
2023-06-07T12:23:24.419Z,37.1648
2023-06-07T12:24:26.189Z,37.1537
2023-06-07T12:25:28.058Z,36.9810
2023-06-07T12:26:32.207Z,36.9176
2023-06-07T12:27:31.726Z,36.9204
2023-06-07T12:28:33.553Z,36.9044